Time;durP1;ratioP1;P1;durP2;ratioP2;P2;SDS_P1;SDS_P2;PMS_P1;PMS_P2;Temp;Humidity;BMP_temperature;BMP_pressure;BME280_temperature;BME280_humidity;BME280_pressure;Samples;Min_cycle;Max_cycle;Signal;HPM_P1;HPM_P2
2023/08/24 00:01:36;;;;;;;5.10;2.90;;;;;;;;;;5021556;28;20486;-79
2023/08/24 00:04:04;;;;;;;4.90;2.83;;;;;;;;;;5023845;28;20949;-80
2023/08/24 00:06:32;;;;;;;7.83;3.30;;;;;;;;;;5021642;28;20475;-78
2023/08/24 00:09:05;;;;;;;5.30;2.50;;;;;;;;;;5028301;28;20542;-80
2023/08/24 00:11:32;;;;;;;5.87;3.80;;;;;;;;;;5010311;28;20523;-79
2023/08/24 00:14:00;;;;;;;6.97;3.80;;;;;;;;;;5014298;28;20896;-79
2023/08/24 00:16:28;;;;;;;6.00;3.97;;;;;;;;;;5011833;28;20523;-79
2023/08/24 00:18:56;;;;;;;6.30;4.17;;;;;;;;;;5011451;28;20563;-80
2023/08/24 00:21:24;;;;;;;5.20;3.70;;;;;;;;;;5009761;28;20448;-80
2023/08/24 00:23:52;;;;;;;6.23;3.77;;;;;;;;;;5008034;28;20688;-80
2023/08/24 00:26:21;;;;;;;6.40;4.00;;;;;;;;;;5010284;28;20732;-79
2023/08/24 00:28:48;;;;;;;7.23;4.10;;;;;;;;;;5007503;28;20451;-80
2023/08/24 00:31:17;;;;;;;8.10;4.20;;;;;;;;;;5007952;28;21047;-79
2023/08/24 00:33:44;;;;;;;4.97;3.60;;;;;;;;;;5008413;28;20456;-80
2023/08/24 00:36:12;;;;;;;5.77;3.30;;;;;;;;;;5011891;28;20456;-80
2023/08/24 00:38:39;;;;;;;4.20;3.07;;;;;;;;;;5007297;28;20464;-80
2023/08/24 00:41:07;;;;;;;6.17;3.53;;;;;;;;;;5010881;28;20444;-80
2023/08/24 00:43:36;;;;;;;9.03;3.50;;;;;;;;;;5007915;28;20894;-80
2023/08/24 00:46:05;;;;;;;8.00;3.50;;;;;;;;;;5011684;28;20880;-80
2023/08/24 00:48:33;;;;;;;5.53;3.93;;;;;;;;;;5005728;28;20480;-79
2023/08/24 00:51:01;;;;;;;5.50;3.50;;;;;;;;;;5010877;28;20514;-79
2023/08/24 00:53:30;;;;;;;5.20;3.50;;;;;;;;;;5006299;28;20448;-81
2023/08/24 00:55:58;;;;;;;6.50;3.80;;;;;;;;;;5014915;28;20444;-80
2023/08/24 00:58:25;;;;;;;6.30;3.83;;;;;;;;;;5007626;28;20467;-80
2023/08/24 01:00:55;;;;;;;5.10;3.03;;;;;;;;;;5007479;28;20449;-80
2023/08/24 01:03:24;;;;;;;5.17;3.93;;;;;;;;;;5011581;28;20950;-79
2023/08/24 01:05:51;;;;;;;9.80;3.90;;;;;;;;;;5009293;28;20464;-81
2023/08/24 01:08:19;;;;;;;6.33;3.97;;;;;;;;;;5010036;28;20495;-78
2023/08/24 01:10:51;;;;;;;4.80;3.67;;;;;;;;;;5009445;28;20444;-78
2023/08/24 01:13:22;;;;;;;5.63;3.50;;;;;;;;;;5009381;28;20461;-80
2023/08/24 01:15:53;;;;;;;5.07;3.17;;;;;;;;;;5010342;28;20459;-80
2023/08/24 01:18:22;;;;;;;4.77;3.50;;;;;;;;;;5006634;28;20492;-81
2023/08/24 01:20:51;;;;;;;6.63;3.70;;;;;;;;;;5010371;28;20452;-79
2023/08/24 01:23:29;;;;;;;5.50;3.87;;;;;;;;;;5008105;28;20446;-80
2023/08/24 01:26:05;;;;;;;5.73;4.23;;;;;;;;;;5025209;28;20893;-79
2023/08/24 01:28:32;;;;;;;6.20;3.70;;;;;;;;;;5028528;28;20463;-79
2023/08/24 01:31:00;;;;;;;7.63;3.40;;;;;;;;;;5029755;28;20491;-78
2023/08/24 01:33:27;;;;;;;7.80;3.50;;;;;;;;;;5028581;28;20463;-80
2023/08/24 01:35:55;;;;;;;5.60;3.67;;;;;;;;;;5030575;28;20497;-79
2023/08/24 01:38:22;;;;;;;4.73;3.30;;;;;;;;;;5029502;28;20458;-80
2023/08/24 01:40:55;;;;;;;4.87;3.50;;;;;;;;;;5029876;28;20447;-78
2023/08/24 01:43:27;;;;;;;6.17;3.73;;;;;;;;;;5028305;28;20455;-79
2023/08/24 01:45:55;;;;;;;5.60;2.80;;;;;;;;;;5028946;28;20482;-80
2023/08/24 01:48:23;;;;;;;4.67;3.40;;;;;;;;;;5027295;28;20463;-80
2023/08/24 01:50:51;;;;;;;7.40;4.07;;;;;;;;;;5028852;28;20467;-80
2023/08/24 01:53:19;;;;;;;7.23;3.50;;;;;;;;;;5025972;28;20459;-79
2023/08/24 01:55:47;;;;;;;5.23;3.60;;;;;;;;;;5030286;28;20447;-79
2023/08/24 01:58:14;;;;;;;5.20;3.40;;;;;;;;;;5025772;28;20455;-79
2023/08/24 02:00:43;;;;;;;5.30;3.30;;;;;;;;;;5029368;28;20447;-80
2023/08/24 02:03:11;;;;;;;6.33;4.43;;;;;;;;;;5027886;28;20455;-80
2023/08/24 02:05:38;;;;;;;6.20;3.97;;;;;;;;;;5028018;28;20451;-79
2023/08/24 02:08:06;;;;;;;7.10;4.10;;;;;;;;;;5032332;28;20459;-80
2023/08/24 02:10:33;;;;;;;6.23;4.27;;;;;;;;;;5027558;28;20455;-80
2023/08/24 02:13:01;;;;;;;6.30;4.37;;;;;;;;;;5031275;28;20545;-80
2023/08/24 02:15:28;;;;;;;7.07;4.57;;;;;;;;;;5026573;28;20455;-79
2023/08/24 02:17:57;;;;;;;9.60;4.07;;;;;;;;;;5032134;28;20574;-80
2023/08/24 02:20:24;;;;;;;6.10;3.90;;;;;;;;;;5026665;28;20692;-81
2023/08/24 02:22:52;;;;;;;6.53;3.90;;;;;;;;;;5032779;28;20497;-79
2023/08/24 02:25:19;;;;;;;6.30;4.20;;;;;;;;;;5026144;28;20459;-80
2023/08/24 02:27:48;;;;;;;7.80;4.10;;;;;;;;;;5028748;28;20459;-79
2023/08/24 02:30:17;;;;;;;6.97;4.10;;;;;;;;;;5026066;28;20543;-80
2023/08/24 02:32:44;;;;;;;5.40;3.73;;;;;;;;;;5027314;28;20483;-80
2023/08/24 02:35:13;;;;;;;7.87;4.90;;;;;;;;;;5028769;28;20455;-79
2023/08/24 02:37:41;;;;;;;5.43;3.80;;;;;;;;;;5024722;28;20455;-80
2023/08/24 02:40:10;;;;;;;7.30;4.07;;;;;;;;;;5027004;28;20497;-78
2023/08/24 02:42:37;;;;;;;9.03;3.97;;;;;;;;;;5024940;28;20871;-80
2023/08/24 02:45:08;;;;;;;7.33;3.90;;;;;;;;;;5026340;28;20922;-79
2023/08/24 02:47:36;;;;;;;10.50;4.77;;;;;;;;;;5024288;28;20486;-79
2023/08/24 02:50:10;;;;;;;5.30;4.10;;;;;;;;;;5023813;28;20491;-80
2023/08/24 02:52:39;;;;;;;8.80;3.80;;;;;;;;;;5026824;28;20498;-80
2023/08/24 02:55:07;;;;;;;7.10;4.27;;;;;;;;;;5028316;28;20494;-80
2023/08/24 02:57:36;;;;;;;7.43;4.30;;;;;;;;;;5025101;28;20462;-79
2023/08/24 03:00:13;;;;;;;5.50;3.97;;;;;;;;;;5028533;28;20454;-80
2023/08/24 03:02:42;;;;;;;6.10;4.30;;;;;;;;;;5026258;28;20463;-80
2023/08/24 03:05:09;;;;;;;7.23;4.57;;;;;;;;;;5029115;28;20458;-79
2023/08/24 03:07:37;;;;;;;7.97;4.43;;;;;;;;;;5026481;28;20501;-77
2023/08/24 03:10:09;;;;;;;8.73;4.63;;;;;;;;;;5030337;28;20447;-79
2023/08/24 03:12:37;;;;;;;6.30;4.60;;;;;;;;;;5029199;28;20519;-79
2023/08/24 03:15:05;;;;;;;6.33;3.90;;;;;;;;;;5031026;28;20459;-79
2023/08/24 03:17:33;;;;;;;6.53;4.23;;;;;;;;;;5030091;28;20498;-81
2023/08/24 03:20:01;;;;;;;5.80;4.40;;;;;;;;;;5027032;28;20499;-80
2023/08/24 03:22:32;;;;;;;6.23;4.20;;;;;;;;;;5030381;28;20474;-79
2023/08/24 03:25:00;;;;;;;8.63;4.20;;;;;;;;;;5028585;28;20439;-78
2023/08/24 03:27:29;;;;;;;7.40;4.50;;;;;;;;;;5030619;28;20486;-79
2023/08/24 03:29:58;;;;;;;7.03;4.30;;;;;;;;;;5029095;28;20427;-78
2023/08/24 03:32:26;;;;;;;12.40;4.80;;;;;;;;;;5027233;28;20490;-80
2023/08/24 03:35:00;;;;;;;5.97;3.80;;;;;;;;;;5027147;28;20455;-80
2023/08/24 03:37:27;;;;;;;12.10;3.53;;;;;;;;;;5024336;28;20455;-79
2023/08/24 03:39:55;;;;;;;7.87;3.93;;;;;;;;;;5024199;28;20479;-78
2023/08/24 03:42:23;;;;;;;5.33;3.57;;;;;;;;;;5025550;28;20542;-80
2023/08/24 03:44:52;;;;;;;9.00;5.57;;;;;;;;;;5023030;28;20455;-80
2023/08/24 03:47:19;;;;;;;8.10;4.70;;;;;;;;;;5025838;28;20540;-79
2023/08/24 03:49:46;;;;;;;4.73;3.50;;;;;;;;;;5021474;28;20489;-80
2023/08/24 03:52:14;;;;;;;5.57;4.10;;;;;;;;;;5024872;28;20537;-80
2023/08/24 03:54:42;;;;;;;7.33;4.80;;;;;;;;;;5021497;28;20459;-79
2023/08/24 03:57:09;;;;;;;6.13;4.20;;;;;;;;;;5024342;28;20779;-78
2023/08/24 03:59:37;;;;;;;6.80;4.00;;;;;;;;;;5019911;28;20451;-80
2023/08/24 04:02:06;;;;;;;7.17;3.97;;;;;;;;;;5022884;28;20889;-78
2023/08/24 04:04:33;;;;;;;7.80;4.83;;;;;;;;;;5022550;28;20455;-79
2023/08/24 04:07:02;;;;;;;8.33;5.10;;;;;;;;;;5021009;28;20451;-80
2023/08/24 04:09:30;;;;;;;5.90;4.67;;;;;;;;;;5021292;28;20431;-78
2023/08/24 04:11:57;;;;;;;6.30;4.30;;;;;;;;;;5024062;28;20739;-80
2023/08/24 04:14:25;;;;;;;7.03;4.90;;;;;;;;;;5022912;28;20478;-80
2023/08/24 04:16:52;;;;;;;7.80;4.90;;;;;;;;;;5024155;28;20548;-80
2023/08/24 04:19:21;;;;;;;7.70;4.83;;;;;;;;;;5022096;28;20457;-80
2023/08/24 04:21:49;;;;;;;10.60;5.17;;;;;;;;;;5023457;28;20483;-78
2023/08/24 04:24:16;;;;;;;8.20;5.30;;;;;;;;;;5020454;28;20451;-77
2023/08/24 04:26:44;;;;;;;8.37;4.10;;;;;;;;;;5021871;28;20475;-79
2023/08/24 04:29:11;;;;;;;7.23;4.80;;;;;;;;;;5025268;28;20499;-79
2023/08/24 04:31:40;;;;;;;8.17;5.37;;;;;;;;;;5024179;28;20498;-79
2023/08/24 04:34:09;;;;;;;6.40;4.53;;;;;;;;;;5024158;28;20447;-79
2023/08/24 04:36:38;;;;;;;7.60;4.40;;;;;;;;;;5022295;28;21059;-78
2023/08/24 04:39:05;;;;;;;7.33;4.60;;;;;;;;;;5022812;28;20481;-80
2023/08/24 04:41:32;;;;;;;6.13;3.80;;;;;;;;;;5023232;28;20451;-80
2023/08/24 04:44:00;;;;;;;7.83;5.13;;;;;;;;;;5020890;28;20557;-80
2023/08/24 04:46:27;;;;;;;5.60;3.70;;;;;;;;;;5021104;28;20517;-80
2023/08/24 04:48:55;;;;;;;6.80;4.60;;;;;;;;;;5023125;28;20489;-79
2023/08/24 04:51:22;;;;;;;6.00;4.70;;;;;;;;;;5024872;28;20546;-81
2023/08/24 04:53:51;;;;;;;6.03;4.27;;;;;;;;;;5022454;28;20510;-81
2023/08/24 04:56:24;;;;;;;7.47;4.93;;;;;;;;;;5022571;28;20463;-81
2023/08/24 04:58:56;;;;;;;6.43;4.47;;;;;;;;;;5025922;28;20538;-80
2023/08/24 05:01:24;;;;;;;6.30;4.10;;;;;;;;;;5029899;28;20801;-80
2023/08/24 05:03:52;;;;;;;6.30;4.37;;;;;;;;;;5029493;28;20478;-80
2023/08/24 05:06:20;;;;;;;7.10;4.77;;;;;;;;;;5024792;28;20665;-80
2023/08/24 05:08:47;;;;;;;10.47;5.60;;;;;;;;;;5020498;28;20648;-81
2023/08/24 05:11:18;;;;;;;6.67;4.17;;;;;;;;;;5020373;28;20478;-80
2023/08/24 05:13:46;;;;;;;6.73;4.70;;;;;;;;;;5019134;28;20559;-79
2023/08/24 05:16:14;;;;;;;6.80;4.70;;;;;;;;;;5017288;28;20728;-80
2023/08/24 05:18:41;;;;;;;6.20;4.40;;;;;;;;;;5018377;28;20558;-80
2023/08/24 05:21:09;;;;;;;6.63;4.40;;;;;;;;;;5022602;28;20459;-79
2023/08/24 05:23:36;;;;;;;10.23;5.77;;;;;;;;;;5027936;28;20439;-80
2023/08/24 05:26:04;;;;;;;7.07;5.17;;;;;;;;;;5021819;28;20462;-78
2023/08/24 05:28:33;;;;;;;8.70;4.60;;;;;;;;;;5021133;28;20451;-81
2023/08/24 05:31:01;;;;;;;6.70;5.50;;;;;;;;;;5020553;28;20455;-79
2023/08/24 05:33:30;;;;;;;9.60;5.80;;;;;;;;;;5018167;28;20579;-81
2023/08/24 05:35:59;;;;;;;6.60;5.07;;;;;;;;;;5017595;28;20455;-79
2023/08/24 05:38:26;;;;;;;9.93;6.17;;;;;;;;;;5018527;28;20459;-79
2023/08/24 05:40:53;;;;;;;7.10;5.40;;;;;;;;;;5019588;28;20728;-80
2023/08/24 05:43:22;;;;;;;10.23;5.63;;;;;;;;;;5017253;28;20669;-79
2023/08/24 05:45:51;;;;;;;8.10;5.40;;;;;;;;;;5023420;28;20652;-79
2023/08/24 05:48:18;;;;;;;6.77;5.47;;;;;;;;;;5016468;28;20478;-78
2023/08/24 05:50:45;;;;;;;9.40;5.50;;;;;;;;;;5017926;28;20447;-80
2023/08/24 05:53:13;;;;;;;9.30;5.50;;;;;;;;;;5020000;28;20483;-79
2023/08/24 05:55:41;;;;;;;10.83;6.40;;;;;;;;;;5015381;28;20463;-79
2023/08/24 05:58:08;;;;;;;11.53;6.20;;;;;;;;;;5022724;28;20486;-79
2023/08/24 06:00:38;;;;;;;9.27;5.27;;;;;;;;;;5019825;28;20451;-79
2023/08/24 06:03:07;;;;;;;8.90;5.17;;;;;;;;;;5019701;28;20567;-81
2023/08/24 06:05:34;;;;;;;9.53;4.93;;;;;;;;;;5022468;28;21119;-80
2023/08/24 06:08:02;;;;;;;6.90;4.40;;;;;;;;;;5018428;28;20451;-78
2023/08/24 06:10:30;;;;;;;11.47;5.10;;;;;;;;;;5026481;28;20466;-80
2023/08/24 06:12:58;;;;;;;6.07;4.70;;;;;;;;;;5023732;28;20515;-80
2023/08/24 06:15:27;;;;;;;9.13;5.13;;;;;;;;;;5016164;28;20487;-79
2023/08/24 06:17:55;;;;;;;7.50;4.30;;;;;;;;;;5017591;28;20541;-80
2023/08/24 06:20:24;;;;;;;6.67;4.83;;;;;;;;;;5015808;28;20451;-79
2023/08/24 06:22:51;;;;;;;7.30;4.40;;;;;;;;;;5014067;28;20435;-79
2023/08/24 06:25:19;;;;;;;7.43;4.00;;;;;;;;;;5019446;28;20451;-80
2023/08/24 06:27:46;;;;;;;6.83;3.97;;;;;;;;;;5015150;28;20505;-80
2023/08/24 06:30:17;;;;;;;7.40;4.47;;;;;;;;;;5015880;28;20781;-79
2023/08/24 06:32:44;;;;;;;6.57;3.53;;;;;;;;;;5017679;28;20487;-80
2023/08/24 06:35:14;;;;;;;7.10;4.03;;;;;;;;;;5014305;28;20456;-80
2023/08/24 06:37:43;;;;;;;6.57;4.40;;;;;;;;;;5023975;28;20443;-79
2023/08/24 06:40:14;;;;;;;4.90;3.17;;;;;;;;;;5020472;28;20454;-80
2023/08/24 06:42:41;;;;;;;9.53;3.40;;;;;;;;;;5021940;28;20459;-81
2023/08/24 06:45:10;;;;;;;5.20;2.70;;;;;;;;;;5019312;28;20459;-82
2023/08/24 06:47:37;;;;;;;5.70;3.30;;;;;;;;;;5017364;28;20477;-80
2023/08/24 06:50:14;;;;;;;4.70;2.70;;;;;;;;;;5019967;28;20468;-80
2023/08/24 06:52:43;;;;;;;4.23;2.30;;;;;;;;;;5017578;28;20486;-78
2023/08/24 06:55:11;;;;;;;6.57;2.60;;;;;;;;;;5015802;28;20466;-78
2023/08/24 06:57:40;;;;;;;4.10;2.47;;;;;;;;;;5018344;28;20448;-78
2023/08/24 07:00:09;;;;;;;7.23;2.83;;;;;;;;;;5017523;28;20558;-80
2023/08/24 07:02:36;;;;;;;6.43;2.57;;;;;;;;;;5021671;28;20455;-80
2023/08/24 07:05:08;;;;;;;6.33;3.07;;;;;;;;;;5022889;28;20443;-80
2023/08/24 07:07:35;;;;;;;4.17;2.40;;;;;;;;;;5021778;28;20475;-80
2023/08/24 07:10:11;;;;;;;4.47;2.30;;;;;;;;;;5020555;28;20459;-82
2023/08/24 07:12:40;;;;;;;5.27;2.30;;;;;;;;;;5022611;28;20665;-79
2023/08/24 07:15:08;;;;;;;9.10;3.30;;;;;;;;;;5027025;28;20447;-78
2023/08/24 07:17:36;;;;;;;6.77;2.37;;;;;;;;;;5025691;28;20475;-79
2023/08/24 07:20:08;;;;;;;7.07;1.83;;;;;;;;;;5026474;28;20490;-78
2023/08/24 07:22:38;;;;;;;6.23;2.60;;;;;;;;;;5026178;28;20455;-79
2023/08/24 07:25:07;;;;;;;5.57;2.13;;;;;;;;;;5026360;28;20439;-79
2023/08/24 07:27:37;;;;;;;3.70;1.80;;;;;;;;;;5026708;28;20552;-80
2023/08/24 07:30:09;;;;;;;6.57;2.80;;;;;;;;;;5024965;28;20450;-80
2023/08/24 07:32:36;;;;;;;5.30;1.60;;;;;;;;;;5025307;28;20519;-79
2023/08/24 07:35:06;;;;;;;4.93;2.10;;;;;;;;;;5026256;28;20443;-80
2023/08/24 07:37:36;;;;;;;5.87;2.07;;;;;;;;;;5024824;28;20462;-77
2023/08/24 07:40:10;;;;;;;3.97;1.97;;;;;;;;;;5027281;28;20443;-79
2023/08/24 07:42:46;;;;;;;8.27;2.40;;;;;;;;;;5028197;28;20760;-78
2023/08/24 07:45:17;;;;;;;4.07;1.90;;;;;;;;;;5026655;28;20446;-80
2023/08/24 07:47:49;;;;;;;4.23;1.87;;;;;;;;;;5011502;28;20472;-80
2023/08/24 07:50:17;;;;;;;4.60;2.00;;;;;;;;;;5008209;28;20460;-79
2023/08/24 07:52:44;;;;;;;6.23;1.97;;;;;;;;;;5006454;28;20471;-78
2023/08/24 07:55:18;;;;;;;6.20;2.20;;;;;;;;;;5000479;28;20492;-79
2023/08/24 07:57:54;;;;;;;5.17;2.40;;;;;;;;;;5001246;28;20448;-79
2023/08/24 08:00:22;;;;;;;5.47;2.80;;;;;;;;;;4999527;28;20448;-80
2023/08/24 08:02:51;;;;;;;4.90;3.07;;;;;;;;;;5000781;28;20516;-81
2023/08/24 08:05:20;;;;;;;4.50;2.23;;;;;;;;;;5003156;28;20498;-80
2023/08/24 08:07:50;;;;;;;4.27;1.97;;;;;;;;;;5004987;28;21176;-79
2023/08/24 08:10:20;;;;;;;5.87;2.67;;;;;;;;;;5002272;28;20479;-80
2023/08/24 08:12:51;;;;;;;5.43;2.63;;;;;;;;;;5007501;28;20472;-80
2023/08/24 08:15:20;;;;;;;4.10;2.00;;;;;;;;;;5002723;28;20487;-80
2023/08/24 08:17:49;;;;;;;4.20;2.03;;;;;;;;;;5012836;28;20487;-78
2023/08/24 08:20:18;;;;;;;5.77;2.77;;;;;;;;;;5025551;28;20439;-79
2023/08/24 08:22:46;;;;;;;5.60;2.00;;;;;;;;;;5026337;28;20764;-80
2023/08/24 08:25:14;;;;;;;4.73;2.40;;;;;;;;;;5025250;28;20502;-81
2023/08/24 08:27:41;;;;;;;5.17;2.27;;;;;;;;;;5015499;28;20459;-80
2023/08/24 08:30:11;;;;;;;5.13;2.23;;;;;;;;;;5016625;28;20454;-81
2023/08/24 08:32:46;;;;;;;6.03;3.17;;;;;;;;;;5020493;28;20467;-78
2023/08/24 08:35:20;;;;;;;5.10;2.93;;;;;;;;;;5020348;28;20486;-79
2023/08/24 08:40:58;;;;;;;5.47;1.93;;;;;;;;;;5028217;28;20468;-79
2023/08/24 08:43:26;;;;;;;5.60;2.30;;;;;;;;;;5021363;28;20491;-80
2023/08/24 08:45:54;;;;;;;4.90;2.20;;;;;;;;;;5017898;28;20534;-79
2023/08/24 08:48:23;;;;;;;8.23;2.30;;;;;;;;;;5008406;28;20463;-79
2023/08/24 08:50:51;;;;;;;7.80;2.70;;;;;;;;;;5025961;28;20447;-79
2023/08/24 08:53:22;;;;;;;3.90;1.80;;;;;;;;;;5023906;28;20487;-79
2023/08/24 08:55:50;;;;;;;4.23;1.97;;;;;;;;;;5021430;28;20469;-78
2023/08/24 08:58:18;;;;;;;8.10;2.30;;;;;;;;;;5022341;28;20471;-78
2023/08/24 09:00:46;;;;;;;6.67;1.90;;;;;;;;;;5020027;28;20487;-79
2023/08/24 09:03:15;;;;;;;7.23;2.63;;;;;;;;;;5024048;28;20481;-81
2023/08/24 09:05:47;;;;;;;6.37;2.93;;;;;;;;;;5023125;28;20763;-81
2023/08/24 09:08:15;;;;;;;7.30;2.73;;;;;;;;;;5020674;28;20505;-78
2023/08/24 09:10:43;;;;;;;5.73;2.10;;;;;;;;;;5024849;28;20585;-79
2023/08/24 09:13:11;;;;;;;5.10;1.97;;;;;;;;;;5024511;28;20447;-80
2023/08/24 09:15:39;;;;;;;4.37;1.80;;;;;;;;;;5025851;28;20490;-79
2023/08/24 09:18:07;;;;;;;3.90;2.20;;;;;;;;;;5027411;28;20490;-80
2023/08/24 09:20:36;;;;;;;5.00;1.70;;;;;;;;;;5024580;28;20470;-77
2023/08/24 09:23:05;;;;;;;4.87;1.63;;;;;;;;;;5024720;28;20518;-80
2023/08/24 09:25:33;;;;;;;6.17;2.50;;;;;;;;;;5024573;28;20459;-80
2023/08/24 09:28:02;;;;;;;4.60;2.33;;;;;;;;;;5026990;28;20451;-79
2023/08/24 09:30:33;;;;;;;6.17;2.50;;;;;;;;;;5027795;28;20480;-80
2023/08/24 09:33:04;;;;;;;4.70;2.30;;;;;;;;;;5020932;28;20456;-78
2023/08/24 09:35:37;;;;;;;5.40;2.97;;;;;;;;;;5015887;28;20515;-79
2023/08/24 09:38:20;;;;;;;3.27;1.80;;;;;;;;;;5011156;28;20462;-77
2023/08/24 09:41:05;;;;;;;4.40;2.17;;;;;;;;;;5023181;28;20451;-80
2023/08/24 09:43:38;;;;;;;4.83;3.00;;;;;;;;;;5020363;28;20476;-82
2023/08/24 09:46:07;;;;;;;3.70;2.17;;;;;;;;;;5025915;28;20474;-81
2023/08/24 09:48:35;;;;;;;5.50;2.30;;;;;;;;;;5022731;28;20464;-78
2023/08/24 09:51:07;;;;;;;4.90;2.93;;;;;;;;;;5018832;28;20554;-81
2023/08/24 09:53:38;;;;;;;5.50;2.67;;;;;;;;;;5020488;28;20483;-81
2023/08/24 09:56:10;;;;;;;8.13;2.30;;;;;;;;;;5022148;28;20487;-79
2023/08/24 09:58:38;;;;;;;7.60;2.63;;;;;;;;;;5022794;28;20451;-79
2023/08/24 10:01:07;;;;;;;3.70;2.20;;;;;;;;;;5020768;28;20455;-78
2023/08/24 10:03:34;;;;;;;9.47;3.73;;;;;;;;;;5022210;28;20546;-79
2023/08/24 10:06:02;;;;;;;9.40;2.70;;;;;;;;;;5022874;28;20478;-80
2023/08/24 10:08:31;;;;;;;7.00;2.10;;;;;;;;;;5021546;28;21127;-80
2023/08/24 10:11:02;;;;;;;5.70;1.90;;;;;;;;;;5022425;28;20725;-79
2023/08/24 10:13:37;;;;;;;6.30;3.90;;;;;;;;;;5019736;28;20468;-78
2023/08/24 10:16:40;;;;;;;5.53;2.73;;;;;;;;;;5025541;28;20457;-79
2023/08/24 10:19:11;;;;;;;6.20;3.07;;;;;;;;;;5002222;28;20460;-80
2023/08/24 10:21:40;;;;;;;5.00;2.43;;;;;;;;;;4996881;28;20544;-77
2023/08/24 10:24:08;;;;;;;13.70;2.73;;;;;;;;;;4986183;28;20820;-80
2023/08/24 10:26:36;;;;;;;3.50;2.10;;;;;;;;;;5000705;28;20484;-79
2023/08/24 10:29:06;;;;;;;6.57;3.30;;;;;;;;;;5004598;28;20452;-79
2023/08/24 10:31:33;;;;;;;4.73;2.10;;;;;;;;;;5006172;28;20472;-80
2023/08/24 10:34:01;;;;;;;10.30;2.67;;;;;;;;;;5007005;28;21031;-80
2023/08/24 10:36:29;;;;;;;3.87;2.10;;;;;;;;;;5004629;28;20527;-80
2023/08/24 10:38:59;;;;;;;5.23;2.27;;;;;;;;;;5006895;28;20567;-78
2023/08/24 10:41:44;;;;;;;6.37;2.50;;;;;;;;;;5002806;28;20456;-81
2023/08/24 10:45:06;;;;;;;;;;;;;;;;;;;;;
2023/08/24 10:47:48;;;;;;;4.80;2.70;;;;;;;;;;5001655;28;20464;-81
2023/08/24 10:50:19;;;;;;;8.03;3.77;;;;;;;;;;5004034;28;20464;-79
2023/08/24 10:52:52;;;;;;;8.40;2.63;;;;;;;;;;5001055;28;20490;-79
2023/08/24 10:55:42;;;;;;;5.90;3.20;;;;;;;;;;4999764;28;20484;-79
2023/08/24 10:58:19;;;;;;;5.47;3.30;;;;;;;;;;4998362;28;20464;-78
2023/08/24 11:00:50;;;;;;;5.20;2.40;;;;;;;;;;5002666;28;20467;-78
2023/08/24 11:03:32;;;;;;;4.70;3.23;;;;;;;;;;5003756;28;20463;-78
2023/08/24 11:06:00;;;;;;;8.00;2.60;;;;;;;;;;5005339;28;20460;-80
2023/08/24 11:08:46;;;;;;;7.37;2.83;;;;;;;;;;5005576;28;20525;-79
2023/08/24 11:11:20;;;;;;;5.93;2.47;;;;;;;;;;5002579;28;20448;-78
2023/08/24 11:14:10;;;;;;;4.30;2.50;;;;;;;;;;5002131;28;20666;-79
2023/08/24 11:19:38;;;;;;;3.23;1.60;;;;;;;;;;5020897;28;20454;-78
2023/08/24 11:22:06;;;;;;;7.00;2.20;;;;;;;;;;5027138;28;20451;-79
2023/08/24 11:24:36;;;;;;;6.30;3.40;;;;;;;;;;5027032;28;20513;-78
2023/08/24 11:27:05;;;;;;;4.60;2.70;;;;;;;;;;5021128;28;20515;-79
2023/08/24 11:29:32;;;;;;;3.73;1.90;;;;;;;;;;5013910;28;20447;-79
2023/08/24 11:32:01;;;;;;;4.90;2.27;;;;;;;;;;5025657;28;20470;-80
2023/08/24 11:34:31;;;;;;;4.90;2.20;;;;;;;;;;5019156;28;20585;-79
2023/08/24 11:36:59;;;;;;;9.80;7.47;;;;;;;;;;5014260;28;20467;-80
2023/08/24 11:39:31;;;;;;;4.83;3.00;;;;;;;;;;5018559;28;20527;-78
2023/08/24 11:41:59;;;;;;;7.33;2.67;;;;;;;;;;5023041;28;20535;-81
2023/08/24 11:44:26;;;;;;;4.77;2.67;;;;;;;;;;5019340;28;20474;-79
2023/08/24 11:46:54;;;;;;;6.07;2.23;;;;;;;;;;5025311;28;20518;-78
2023/08/24 11:49:22;;;;;;;13.30;4.60;;;;;;;;;;5041316;28;20466;-78
2023/08/24 11:51:52;;;;;;;5.83;1.80;;;;;;;;;;5020149;28;20462;-79
2023/08/24 11:54:20;;;;;;;3.90;2.27;;;;;;;;;;5021806;28;20487;-78
2023/08/24 11:56:48;;;;;;;6.87;2.30;;;;;;;;;;5016783;28;20660;-82
2023/08/24 11:59:16;;;;;;;4.17;2.40;;;;;;;;;;5026530;28;20467;-80
2023/08/24 12:01:44;;;;;;;6.23;3.23;;;;;;;;;;5021008;28;20599;-77
2023/08/24 12:04:12;;;;;;;8.17;3.93;;;;;;;;;;5026317;28;20443;-80
2023/08/24 12:06:40;;;;;;;5.97;3.27;;;;;;;;;;5025723;28;20740;-79
2023/08/24 12:09:10;;;;;;;5.53;2.27;;;;;;;;;;5026727;28;20692;-80
2023/08/24 12:11:39;;;;;;;5.70;2.33;;;;;;;;;;5026286;28;20459;-80
2023/08/24 12:14:09;;;;;;;4.60;2.83;;;;;;;;;;5026545;28;20494;-78
2023/08/24 12:16:37;;;;;;;5.00;3.23;;;;;;;;;;5020723;28;20464;-76
2023/08/24 12:19:10;;;;;;;6.20;2.53;;;;;;;;;;5003466;28;20492;-79
2023/08/24 12:21:37;;;;;;;5.23;2.10;;;;;;;;;;5020128;28;20455;-77
2023/08/24 12:24:09;;;;;;;5.30;2.10;;;;;;;;;;5022755;28;20435;-79
2023/08/24 12:26:39;;;;;;;4.20;2.17;;;;;;;;;;5024604;28;20445;-81
2023/08/24 12:29:07;;;;;;;25.87;17.73;;;;;;;;;;5021129;28;20451;-79
2023/08/24 12:31:35;;;;;;;8.20;4.60;;;;;;;;;;5024063;28;20478;-79
2023/08/24 12:34:04;;;;;;;5.03;2.03;;;;;;;;;;5020934;28;20481;-80
2023/08/24 12:36:32;;;;;;;3.70;2.10;;;;;;;;;;5021886;28;20966;-80
2023/08/24 12:39:00;;;;;;;6.03;3.57;;;;;;;;;;5020056;28;20914;-80
2023/08/24 12:41:27;;;;;;;6.97;2.70;;;;;;;;;;5023875;28;20523;-81
2023/08/24 12:43:57;;;;;;;9.47;4.00;;;;;;;;;;5024358;28;20451;-79
2023/08/24 12:46:25;;;;;;;6.30;2.80;;;;;;;;;;5006041;28;20510;-79
2023/08/24 12:48:52;;;;;;;3.93;2.20;;;;;;;;;;5023908;28;20447;-79
2023/08/24 12:51:24;;;;;;;4.60;2.37;;;;;;;;;;5024500;28;20455;-78
2023/08/24 12:53:54;;;;;;;9.43;2.33;;;;;;;;;;5021207;28;20462;-80
2023/08/24 12:56:25;;;;;;;5.60;2.33;;;;;;;;;;5019153;28;20938;-81
2023/08/24 12:58:55;;;;;;;6.90;2.10;;;;;;;;;;5021805;28;20479;-80
2023/08/24 13:01:24;;;;;;;4.73;2.67;;;;;;;;;;5019715;28;20455;-80
2023/08/24 13:03:51;;;;;;;5.37;2.80;;;;;;;;;;5021426;28;20451;-80
2023/08/24 13:06:19;;;;;;;4.33;2.30;;;;;;;;;;5020659;28;21029;-80
2023/08/24 13:08:47;;;;;;;4.60;2.50;;;;;;;;;;5019926;28;20462;-81
2023/08/24 13:11:15;;;;;;;4.57;2.30;;;;;;;;;;5021802;28;20456;-81
2023/08/24 13:13:45;;;;;;;6.60;3.20;;;;;;;;;;5022579;28;20447;-80
2023/08/24 13:16:13;;;;;;;6.67;3.87;;;;;;;;;;5023323;28;20498;-81
2023/08/24 13:18:41;;;;;;;4.93;3.00;;;;;;;;;;5019974;28;20490;-81
2023/08/24 13:21:09;;;;;;;4.10;2.07;;;;;;;;;;5023130;28;20458;-80
2023/08/24 13:23:37;;;;;;;5.67;2.30;;;;;;;;;;5022177;28;20502;-80
2023/08/24 13:26:05;;;;;;;5.10;2.53;;;;;;;;;;5014525;28;20743;-80
2023/08/24 13:28:32;;;;;;;9.17;7.27;;;;;;;;;;5019852;28;20459;-78
2023/08/24 13:31:00;;;;;;;8.87;2.67;;;;;;;;;;5023207;28;20451;-81
2023/08/24 13:33:28;;;;;;;4.43;2.50;;;;;;;;;;5023345;28;20451;-80
2023/08/24 13:35:57;;;;;;;4.77;3.30;;;;;;;;;;5028532;28;20483;-80
2023/08/24 13:38:25;;;;;;;6.20;3.40;;;;;;;;;;5027879;28;20467;-79
2023/08/24 13:40:53;;;;;;;6.30;3.60;;;;;;;;;;5022497;28;20459;-78
2023/08/24 13:43:22;;;;;;;4.63;3.27;;;;;;;;;;5022453;28;20461;-80
2023/08/24 13:45:51;;;;;;;5.40;3.07;;;;;;;;;;5023460;28;20449;-81
2023/08/24 13:48:19;;;;;;;4.20;2.67;;;;;;;;;;5024101;28;20459;-80
2023/08/24 13:50:51;;;;;;;3.83;2.50;;;;;;;;;;5023635;28;20456;-79
2023/08/24 13:53:21;;;;;;;4.40;1.97;;;;;;;;;;5024552;28;20460;-79
2023/08/24 13:55:51;;;;;;;5.77;2.20;;;;;;;;;;5018619;28;20494;-78
2023/08/24 13:58:18;;;;;;;4.77;2.40;;;;;;;;;;5025224;28;20482;-80
2023/08/24 14:00:46;;;;;;;4.40;2.20;;;;;;;;;;5025552;28;20530;-81
2023/08/24 14:03:14;;;;;;;4.70;2.30;;;;;;;;;;5022992;28;20452;-80
2023/08/24 14:05:42;;;;;;;4.23;1.93;;;;;;;;;;5028050;28;20443;-81
2023/08/24 14:08:22;;;;;;;;;;;;;;;;;;;;;
2023/08/24 14:10:51;;;;;;;4.20;2.83;;;;;;;;;;5022817;28;21232;-77
2023/08/24 14:13:20;;;;;;;5.80;3.67;;;;;;;;;;5021990;28;20467;-79
2023/08/24 14:15:50;;;;;;;7.03;2.67;;;;;;;;;;5024642;28;20601;-77
2023/08/24 14:18:21;;;;;;;5.63;2.07;;;;;;;;;;5021897;28;20554;-80
2023/08/24 14:20:49;;;;;;;5.33;2.20;;;;;;;;;;5025669;28;20423;-80
2023/08/24 14:23:17;;;;;;;7.03;2.50;;;;;;;;;;5018945;28;20843;-78
2023/08/24 14:25:44;;;;;;;5.37;3.50;;;;;;;;;;5023582;28;20459;-79
2023/08/24 14:28:14;;;;;;;4.20;1.97;;;;;;;;;;5001807;28;20460;-79
2023/08/24 14:30:41;;;;;;;5.43;2.07;;;;;;;;;;5004175;28;20476;-80
2023/08/24 14:33:09;;;;;;;4.07;2.10;;;;;;;;;;5004110;28;20466;-79
2023/08/24 14:35:36;;;;;;;4.40;2.67;;;;;;;;;;5024776;28;20478;-80
2023/08/24 14:38:05;;;;;;;8.70;4.00;;;;;;;;;;5043012;28;20465;-80
2023/08/24 14:40:33;;;;;;;10.80;2.40;;;;;;;;;;5039697;28;20735;-79
2023/08/24 14:43:03;;;;;;;5.80;1.87;;;;;;;;;;5030795;28;20554;-79
2023/08/24 14:45:32;;;;;;;4.57;1.77;;;;;;;;;;5023093;28;20487;-79
2023/08/24 14:47:59;;;;;;;4.33;2.40;;;;;;;;;;5024362;28;20977;-79
2023/08/24 14:50:26;;;;;;;4.80;2.40;;;;;;;;;;5026206;28;20645;-79
2023/08/24 14:52:54;;;;;;;4.20;1.90;;;;;;;;;;5022778;28;20453;-78
2023/08/24 14:55:21;;;;;;;6.80;2.27;;;;;;;;;;5016862;28;20530;-80
2023/08/24 14:57:52;;;;;;;4.43;2.43;;;;;;;;;;5014513;28;20498;-79
2023/08/24 15:00:20;;;;;;;4.93;2.73;;;;;;;;;;5024711;28;20456;-81
2023/08/24 15:02:49;;;;;;;5.50;2.87;;;;;;;;;;5018155;28;20462;-80